Hollis, New Hampshire
Current Conditions -  °F | °C
As of 7:51 PM on Monday 24 Nov 2014 (Local Time) from KASH Reporting Station
Scattered Clouds Scattered Clouds  
Wind Chill: 18°   Ceiling: Unl
Heat Index: 18°   Visibility: 10mi
Dew Point: 14°   Wind: 8mph
Humidity: 78%   Direction: 240°WSW
Pressure: 29.61"   Gusts: 23mph
Location:  42.74°N, 71.59°W
Report Text: KASH 250051Z 24007G20KT 10SM SCT028 18/14 A2961 RMK AO2 T01770138 SLP273
Loading
Personal Weather Stations






























Interactive Weather Map New forecast layout! Learn more

10-Day Weather Forecast

Advertisements
Track Severe Weather on mobile